sensor_id;sensor_type;location;lat;lon;timestamp;pressure;altitude;pressure_sealevel;temperature;humidity
31403;BME280;18039;52.188;21.024;2023-03-14T00:02:17;75470.06;;;-141.45;78.30
31403;BME280;18039;52.188;21.024;2023-03-14T00:04:45;75474.13;;;-141.45;78.45
31403;BME280;18039;52.188;21.024;2023-03-14T00:07:12;75482.22;;;-141.45;78.53
31403;BME280;18039;52.188;21.024;2023-03-14T00:09:40;75486.28;;;-141.45;78.69
31403;BME280;18039;52.188;21.024;2023-03-14T00:12:08;75478.16;;;-141.45;78.27
31403;BME280;18039;52.188;21.024;2023-03-14T00:14:35;75474.13;;;-141.45;78.40
31403;BME280;18039;52.188;21.024;2023-03-14T00:17:02;75474.13;;;-141.45;78.56
31403;BME280;18039;52.188;21.024;2023-03-14T00:19:30;75474.13;;;-141.45;78.79
31403;BME280;18039;52.188;21.024;2023-03-14T00:21:57;75470.06;;;-141.45;78.64
31403;BME280;18039;52.188;21.024;2023-03-14T00:24:24;75482.22;;;-141.45;78.88
31403;BME280;18039;52.188;21.024;2023-03-14T00:26:51;75486.28;;;-141.45;79.07
31403;BME280;18039;52.188;21.024;2023-03-14T00:29:18;75486.28;;;-141.45;79.47
31403;BME280;18039;52.188;21.024;2023-03-14T00:31:45;75486.28;;;-141.45;79.59
31403;BME280;18039;52.188;21.024;2023-03-14T00:34:13;75486.28;;;-141.45;79.52
31403;BME280;18039;52.188;21.024;2023-03-14T00:36:39;75500.47;;;-141.45;79.90
31403;BME280;18039;52.188;21.024;2023-03-14T00:39:07;75502.50;;;-141.45;79.95
31403;BME280;18039;52.188;21.024;2023-03-14T00:41:34;75502.50;;;-141.45;79.69
31403;BME280;18039;52.188;21.024;2023-03-14T00:44:01;75494.38;;;-141.45;79.54
31403;BME280;18039;52.188;21.024;2023-03-14T00:46:28;75502.50;;;-141.45;79.82
31403;BME280;18039;52.188;21.024;2023-03-14T00:48:57;75502.50;;;-141.45;80.19
31403;BME280;18039;52.188;21.024;2023-03-14T00:51:24;75502.50;;;-141.45;80.25
31403;BME280;18039;52.188;21.024;2023-03-14T00:53:51;75510.59;;;-141.45;80.06
31403;BME280;18039;52.188;21.024;2023-03-14T00:56:18;75506.53;;;-141.45;79.92
31403;BME280;18039;52.188;21.024;2023-03-14T00:58:45;75514.66;;;-141.45;80.21
31403;BME280;18039;52.188;21.024;2023-03-14T01:01:16;75510.59;;;-141.45;79.81
31403;BME280;18039;52.188;21.024;2023-03-14T01:03:46;75506.53;;;-141.45;79.62
31403;BME280;18039;52.188;21.024;2023-03-14T01:06:17;75506.53;;;-141.45;79.62
31403;BME280;18039;52.188;21.024;2023-03-14T01:08:46;75510.59;;;-141.45;79.52
31403;BME280;18039;52.188;21.024;2023-03-14T01:11:25;75516.66;;;-141.45;79.61
31403;BME280;18039;52.188;21.024;2023-03-14T01:13:53;75502.50;;;-141.45;79.67
31403;BME280;18039;52.188;21.024;2023-03-14T01:16:22;75512.63;;;-141.45;79.34
31403;BME280;18039;52.188;21.024;2023-03-14T01:18:50;75510.59;;;-141.45;79.19
31403;BME280;18039;52.188;21.024;2023-03-14T01:21:34;75500.47;;;-141.45;78.87
31403;BME280;18039;52.188;21.024;2023-03-14T01:24:04;75510.59;;;-141.45;78.67
31403;BME280;18039;52.188;21.024;2023-03-14T01:26:34;75510.59;;;-141.45;78.95
31403;BME280;18039;52.188;21.024;2023-03-14T01:29:03;75514.66;;;-141.45;78.97
31403;BME280;18039;52.188;21.024;2023-03-14T01:31:34;75510.59;;;-141.45;79.09
31403;BME280;18039;52.188;21.024;2023-03-14T01:34:01;75518.69;;;-141.45;78.42
31403;BME280;18039;52.188;21.024;2023-03-14T01:36:28;75518.69;;;-141.45;78.70
31403;BME280;18039;52.188;21.024;2023-03-14T01:39:00;75526.81;;;-141.45;78.93
31403;BME280;18039;52.188;21.024;2023-03-14T01:41:27;75526.81;;;-141.45;78.59
31403;BME280;18039;52.188;21.024;2023-03-14T01:43:57;75526.81;;;-141.45;78.60
31403;BME280;18039;52.188;21.024;2023-03-14T01:46:42;75538.97;;;-141.45;78.86
31403;BME280;18039;52.188;21.024;2023-03-14T01:49:20;75534.91;;;-141.45;78.55
31403;BME280;18039;52.188;21.024;2023-03-14T01:54:28;75549.09;;;-141.45;78.94
31403;BME280;18039;52.188;21.024;2023-03-14T01:57:04;75547.06;;;-141.45;79.06
31403;BME280;18039;52.188;21.024;2023-03-14T01:59:34;75551.13;;;-141.45;79.00
31403;BME280;18039;52.188;21.024;2023-03-14T02:02:02;75551.13;;;-141.45;79.19
31403;BME280;18039;52.188;21.024;2023-03-14T02:04:34;75559.22;;;-141.45;79.20
31403;BME280;18039;52.188;21.024;2023-03-14T02:07:27;75547.06;;;-141.45;78.95
31403;BME280;18039;52.188;21.024;2023-03-14T02:10:12;75543.00;;;-141.45;78.93
31403;BME280;18039;52.188;21.024;2023-03-14T02:12:42;75551.13;;;-141.45;79.10
31403;BME280;18039;52.188;21.024;2023-03-14T02:15:35;75551.13;;;-141.45;78.78
31403;BME280;18039;52.188;21.024;2023-03-14T02:18:13;75557.19;;;-141.45;79.14
31403;BME280;18039;52.188;21.024;2023-03-14T02:24:17;75571.38;;;-141.45;79.33
31403;BME280;18039;52.188;21.024;2023-03-14T02:27:16;75571.38;;;-141.45;79.51
31403;BME280;18039;52.188;21.024;2023-03-14T02:29:53;75559.22;;;-141.45;79.66
31403;BME280;18039;52.188;21.024;2023-03-14T02:32:24;75563.28;;;-141.45;79.45
31403;BME280;18039;52.188;21.024;2023-03-14T02:34:57;75563.28;;;-141.45;79.59
31403;BME280;18039;52.188;21.024;2023-03-14T02:38:03;75555.19;;;-141.45;79.60
31403;BME280;18039;52.188;21.024;2023-03-14T02:40:38;75559.22;;;-141.45;79.38
31403;BME280;18039;52.188;21.024;2023-03-14T02:43:06;75543.00;;;-141.45;79.06
31403;BME280;18039;52.188;21.024;2023-03-14T02:48:07;75551.13;;;-141.45;79.01
31403;BME280;18039;52.188;21.024;2023-03-14T02:50:37;75555.19;;;-141.45;79.06
31403;BME280;18039;52.188;21.024;2023-03-14T02:53:05;75563.28;;;-141.45;79.07
31403;BME280;18039;52.188;21.024;2023-03-14T02:55:33;75559.22;;;-141.45;79.39
31403;BME280;18039;52.188;21.024;2023-03-14T02:58:05;75563.28;;;-141.45;79.17
31403;BME280;18039;52.188;21.024;2023-03-14T03:00:33;75555.19;;;-141.45;78.51
31403;BME280;18039;52.188;21.024;2023-03-14T03:03:02;75551.13;;;-141.45;78.43
31403;BME280;18039;52.188;21.024;2023-03-14T03:05:29;75549.09;;;-141.45;78.42
31403;BME280;18039;52.188;21.024;2023-03-14T03:07:56;75543.00;;;-141.45;78.54
31403;BME280;18039;52.188;21.024;2023-03-14T03:10:24;75541.00;;;-141.45;78.52
31403;BME280;18039;52.188;21.024;2023-03-14T03:12:52;75551.13;;;-141.45;78.17
31403;BME280;18039;52.188;21.024;2023-03-14T03:15:24;75557.19;;;-141.45;78.23
31403;BME280;18039;52.188;21.024;2023-03-14T03:17:54;75557.19;;;-141.45;78.15
31403;BME280;18039;52.188;21.024;2023-03-14T03:20:21;75567.34;;;-141.45;77.95
31403;BME280;18039;52.188;21.024;2023-03-14T03:22:48;75555.19;;;-141.45;77.82
31403;BME280;18039;52.188;21.024;2023-03-14T03:25:18;75555.19;;;-141.45;77.67
31403;BME280;18039;52.188;21.024;2023-03-14T03:27:45;75547.06;;;-141.45;77.45
31403;BME280;18039;52.188;21.024;2023-03-14T03:30:17;75555.19;;;-141.45;77.48
31403;BME280;18039;52.188;21.024;2023-03-14T03:32:45;75549.09;;;-141.45;77.48
31403;BME280;18039;52.188;21.024;2023-03-14T03:35:12;75547.06;;;-141.45;77.15
31403;BME280;18039;52.188;21.024;2023-03-14T03:37:41;75547.06;;;-141.45;76.84
31403;BME280;18039;52.188;21.024;2023-03-14T03:40:09;75551.13;;;-141.45;76.73
31403;BME280;18039;52.188;21.024;2023-03-14T03:42:36;75555.19;;;-141.45;76.84
31403;BME280;18039;52.188;21.024;2023-03-14T03:45:07;75555.19;;;-141.45;77.00
31403;BME280;18039;52.188;21.024;2023-03-14T03:47:39;75547.06;;;-141.45;76.50
31403;BME280;18039;52.188;21.024;2023-03-14T03:50:07;75545.03;;;-141.45;76.29
31403;BME280;18039;52.188;21.024;2023-03-14T03:52:35;75547.06;;;-141.45;76.35
31403;BME280;18039;52.188;21.024;2023-03-14T03:55:02;75551.13;;;-141.45;76.62
31403;BME280;18039;52.188;21.024;2023-03-14T03:57:29;75547.06;;;-141.45;76.76
31403;BME280;18039;52.188;21.024;2023-03-14T03:59:56;75553.16;;;-141.45;76.90
31403;BME280;18039;52.188;21.024;2023-03-14T04:02:24;75555.19;;;-141.45;76.81
31403;BME280;18039;52.188;21.024;2023-03-14T04:04:52;75559.22;;;-141.45;76.52
31403;BME280;18039;52.188;21.024;2023-03-14T04:07:19;75559.22;;;-141.45;76.45
31403;BME280;18039;52.188;21.024;2023-03-14T04:09:47;75555.19;;;-141.45;76.16
31403;BME280;18039;52.188;21.024;2023-03-14T04:12:34;75555.19;;;-141.45;76.33
31403;BME280;18039;52.188;21.024;2023-03-14T04:15:07;75575.44;;;-141.45;76.55
31403;BME280;18039;52.188;21.024;2023-03-14T04:17:36;75591.66;;;-141.45;76.84
31403;BME280;18039;52.188;21.024;2023-03-14T04:20:04;75591.66;;;-141.45;77.17
31403;BME280;18039;52.188;21.024;2023-03-14T04:22:35;75587.59;;;-141.45;77.11
31403;BME280;18039;52.188;21.024;2023-03-14T04:25:02;75597.72;;;-141.45;77.26
31403;BME280;18039;52.188;21.024;2023-03-14T04:27:34;75589.63;;;-141.45;77.20
31403;BME280;18039;52.188;21.024;2023-03-14T04:30:03;75593.69;;;-141.45;77.37
31403;BME280;18039;52.188;21.024;2023-03-14T04:32:51;75603.81;;;-141.45;77.52
31403;BME280;18039;52.188;21.024;2023-03-14T04:35:20;75609.88;;;-141.45;77.69
31403;BME280;18039;52.188;21.024;2023-03-14T04:37:48;75607.88;;;-141.45;77.34
31403;BME280;18039;52.188;21.024;2023-03-14T04:40:16;75609.88;;;-141.45;77.32
31403;BME280;18039;52.188;21.024;2023-03-14T04:42:45;75597.72;;;-141.45;77.55
31403;BME280;18039;52.188;21.024;2023-03-14T04:45:13;75597.72;;;-141.45;77.68
31403;BME280;18039;52.188;21.024;2023-03-14T04:47:42;75587.59;;;-141.45;77.52
31403;BME280;18039;52.188;21.024;2023-03-14T04:50:13;75579.50;;;-141.45;77.18
31403;BME280;18039;52.188;21.024;2023-03-14T04:52:40;75561.25;;;-141.45;76.92
31403;BME280;18039;52.188;21.024;2023-03-14T04:55:07;75559.22;;;-141.45;76.95
31403;BME280;18039;52.188;21.024;2023-03-14T04:57:36;75543.00;;;-141.45;76.71
31403;BME280;18039;52.188;21.024;2023-03-14T05:00:04;75534.91;;;-141.45;76.81
31403;BME280;18039;52.188;21.024;2023-03-14T05:02:58;75526.81;;;-141.45;76.48
31403;BME280;18039;52.188;21.024;2023-03-14T05:05:51;75522.75;;;-141.45;76.65
31403;BME280;18039;52.188;21.024;2023-03-14T05:08:36;75520.72;;;-141.45;76.31
31403;BME280;18039;52.188;21.024;2023-03-14T05:11:22;75506.53;;;-141.45;75.67
31403;BME280;18039;52.188;21.024;2023-03-14T05:13:58;75500.47;;;-141.45;75.81
31403;BME280;18039;52.188;21.024;2023-03-14T05:16:51;75482.22;;;-141.45;75.37
31403;BME280;18039;52.188;21.024;2023-03-14T05:19:48;75472.09;;;-141.45;75.28
31403;BME280;18039;52.188;21.024;2023-03-14T05:22:36;75459.94;;;-141.45;75.48
31403;BME280;18039;52.188;21.024;2023-03-14T05:25:24;75470.06;;;-141.45;74.73
31403;BME280;18039;52.188;21.024;2023-03-14T05:28:10;75470.06;;;-141.45;74.44
31403;BME280;18039;52.188;21.024;2023-03-14T05:30:43;75468.03;;;-141.45;74.38
31403;BME280;18039;52.188;21.024;2023-03-14T05:33:34;75468.03;;;-141.45;74.61
31403;BME280;18039;52.188;21.024;2023-03-14T05:36:12;75470.06;;;-141.45;74.12
31403;BME280;18039;52.188;21.024;2023-03-14T05:38:58;75457.91;;;-141.45;74.04
31403;BME280;18039;52.188;21.024;2023-03-14T05:41:46;75463.97;;;-141.45;74.14
31403;BME280;18039;52.188;21.024;2023-03-14T05:44:36;75468.03;;;-141.45;74.35
31403;BME280;18039;52.188;21.024;2023-03-14T05:47:24;75441.69;;;-141.45;74.39
31403;BME280;18039;52.188;21.024;2023-03-14T05:50:27;75429.53;;;-141.45;73.83
31403;BME280;18039;52.188;21.024;2023-03-14T05:53:13;75433.59;;;-141.45;73.89
31403;BME280;18039;52.188;21.024;2023-03-14T05:55:53;75401.16;;;-141.45;74.06
31403;BME280;18039;52.188;21.024;2023-03-14T05:58:36;75401.16;;;-141.45;73.86
31403;BME280;18039;52.188;21.024;2023-03-14T06:01:06;75374.81;;;-141.45;72.99
31403;BME280;18039;52.188;21.024;2023-03-14T06:03:56;75352.53;;;-141.45;72.06
31403;BME280;18039;52.188;21.024;2023-03-14T06:06:23;75332.28;;;-141.45;72.41
31403;BME280;18039;52.188;21.024;2023-03-14T06:08:51;75332.28;;;-141.45;72.01
31403;BME280;18039;52.188;21.024;2023-03-14T06:11:19;75316.06;;;-141.45;71.13
31403;BME280;18039;52.188;21.024;2023-03-14T06:13:46;75287.69;;;-141.45;70.96
31403;BME280;18039;52.188;21.024;2023-03-14T06:16:13;75275.53;;;-141.45;69.72
31403;BME280;18039;52.188;21.024;2023-03-14T06:18:41;75255.25;;;-141.45;69.98
31403;BME280;18039;52.188;21.024;2023-03-14T06:21:10;75255.25;;;-141.45;69.76
31403;BME280;18039;52.188;21.024;2023-03-14T06:23:38;75251.22;;;-141.45;70.09
31403;BME280;18039;52.188;21.024;2023-03-14T06:26:06;75243.09;;;-141.45;69.91
31403;BME280;18039;52.188;21.024;2023-03-14T06:28:41;75255.25;;;-141.45;69.83
31403;BME280;18039;52.188;21.024;2023-03-14T06:31:08;75239.06;;;-141.45;69.27
31403;BME280;18039;52.188;21.024;2023-03-14T06:33:43;75253.25;;;-141.45;69.24
31403;BME280;18039;52.188;21.024;2023-03-14T06:36:11;75247.16;;;-141.45;69.41
31403;BME280;18039;52.188;21.024;2023-03-14T06:38:41;75259.31;;;-141.45;68.84
31403;BME280;18039;52.188;21.024;2023-03-14T06:41:08;75247.16;;;-141.45;68.60
31403;BME280;18039;52.188;21.024;2023-03-14T06:43:39;75232.97;;;-141.45;68.36
31403;BME280;18039;52.188;21.024;2023-03-14T06:46:08;75247.16;;;-141.45;68.17
31403;BME280;18039;52.188;21.024;2023-03-14T06:48:38;75202.59;;;-141.45;68.25
31403;BME280;18039;52.188;21.024;2023-03-14T06:51:06;75190.44;;;-141.45;67.56
31403;BME280;18039;52.188;21.024;2023-03-14T06:53:34;75178.28;;;-141.45;67.93
31403;BME280;18039;52.188;21.024;2023-03-14T06:56:02;75149.91;;;-141.45;66.81
31403;BME280;18039;52.188;21.024;2023-03-14T06:58:32;75125.59;;;-141.45;66.53
31403;BME280;18039;52.188;21.024;2023-03-14T07:01:01;75111.41;;;-141.45;65.84
31403;BME280;18039;52.188;21.024;2023-03-14T07:03:34;75091.13;;;-141.45;65.37
31403;BME280;18039;52.188;21.024;2023-03-14T07:06:03;75064.81;;;-141.45;65.96
31403;BME280;18039;52.188;21.024;2023-03-14T07:08:32;75034.41;;;-141.45;65.35
31403;BME280;18039;52.188;21.024;2023-03-14T07:11:00;74995.91;;;-141.45;63.90
31403;BME280;18039;52.188;21.024;2023-03-14T07:13:28;74951.34;;;-141.45;63.04
31403;BME280;18039;52.188;21.024;2023-03-14T07:16:01;74947.28;;;-141.45;62.55
31403;BME280;18039;52.188;21.024;2023-03-14T07:18:29;74931.06;;;-141.45;62.94
31403;BME280;18039;52.188;21.024;2023-03-14T07:20:56;74925.00;;;-141.45;62.56
31403;BME280;18039;52.188;21.024;2023-03-14T07:23:24;74937.16;;;-141.45;61.73
31403;BME280;18039;52.188;21.024;2023-03-14T07:25:52;74947.28;;;-141.45;61.73
31403;BME280;18039;52.188;21.024;2023-03-14T07:28:23;74955.38;;;-141.45;62.04
31403;BME280;18039;52.188;21.024;2023-03-14T07:30:57;74967.53;;;-141.45;62.29
31403;BME280;18039;52.188;21.024;2023-03-14T07:33:29;74963.50;;;-141.45;62.09
31403;BME280;18039;52.188;21.024;2023-03-14T07:35:56;74957.41;;;-141.45;61.86
31403;BME280;18039;52.188;21.024;2023-03-14T07:38:24;74957.41;;;-141.45;62.03
31403;BME280;18039;52.188;21.024;2023-03-14T07:41:27;74951.34;;;-141.45;62.29
31403;BME280;18039;52.188;21.024;2023-03-14T07:44:13;74918.91;;;-141.45;62.72
31403;BME280;18039;52.188;21.024;2023-03-14T07:46:41;74894.59;;;-141.45;61.83
31403;BME280;18039;52.188;21.024;2023-03-14T07:49:08;74874.34;;;-141.45;62.15
31403;BME280;18039;52.188;21.024;2023-03-14T07:51:35;74862.19;;;-141.45;60.94
31403;BME280;18039;52.188;21.024;2023-03-14T07:54:03;74841.94;;;-141.45;61.09
31403;BME280;18039;52.188;21.024;2023-03-14T07:56:30;74827.75;;;-141.45;60.36
31403;BME280;18039;52.188;21.024;2023-03-14T07:58:58;74813.56;;;-141.45;60.80
31403;BME280;18039;52.188;21.024;2023-03-14T08:01:25;74793.31;;;-141.45;59.90
31403;BME280;18039;52.188;21.024;2023-03-14T08:03:52;74777.09;;;-141.45;59.22
31403;BME280;18039;52.188;21.024;2023-03-14T08:06:19;74781.16;;;-141.45;59.26
31403;BME280;18039;52.188;21.024;2023-03-14T08:08:47;74764.94;;;-141.45;59.12
31403;BME280;18039;52.188;21.024;2023-03-14T08:11:14;74748.72;;;-141.45;59.26
31403;BME280;18039;52.188;21.024;2023-03-14T08:13:41;74736.56;;;-141.45;58.38
31403;BME280;18039;52.188;21.024;2023-03-14T08:16:09;74724.41;;;-141.45;58.59
31403;BME280;18039;52.188;21.024;2023-03-14T08:18:36;74712.25;;;-141.45;59.51
31403;BME280;18039;52.188;21.024;2023-03-14T08:21:03;74698.06;;;-141.45;57.93
31403;BME280;18039;52.188;21.024;2023-03-14T08:23:31;74712.25;;;-141.45;56.88
31403;BME280;18039;52.188;21.024;2023-03-14T08:25:58;74708.22;;;-141.45;57.45
31403;BME280;18039;52.188;21.024;2023-03-14T08:28:25;74708.22;;;-141.45;57.26
31403;BME280;18039;52.188;21.024;2023-03-14T08:30:57;74683.91;;;-141.45;57.28
31403;BME280;18039;52.188;21.024;2023-03-14T08:33:26;74673.78;;;-141.45;56.90
31403;BME280;18039;52.188;21.024;2023-03-14T08:35:57;74671.75;;;-141.45;56.69
31403;BME280;18039;52.188;21.024;2023-03-14T08:38:24;74651.47;;;-141.45;55.90
31403;BME280;18039;52.188;21.024;2023-03-14T08:40:59;74631.22;;;-141.45;55.81
31403;BME280;18039;52.188;21.024;2023-03-14T08:43:28;74615.00;;;-141.45;56.00
31403;BME280;18039;52.188;21.024;2023-03-14T08:45:59;74619.06;;;-141.45;56.07
31403;BME280;18039;52.188;21.024;2023-03-14T08:48:27;74606.91;;;-141.45;56.36
31403;BME280;18039;52.188;21.024;2023-03-14T08:51:01;74574.50;;;-141.45;56.25
31403;BME280;18039;52.188;21.024;2023-03-14T08:53:31;74558.28;;;-141.45;55.29
31403;BME280;18039;52.188;21.024;2023-03-14T08:55:58;74542.09;;;-141.45;55.04
31403;BME280;18039;52.188;21.024;2023-03-14T08:58:27;74533.97;;;-141.45;54.66
31403;BME280;18039;52.188;21.024;2023-03-14T09:00:54;74521.81;;;-141.45;54.68
31403;BME280;18039;52.188;21.024;2023-03-14T09:03:22;74501.56;;;-141.45;54.48
31403;BME280;18039;52.188;21.024;2023-03-14T09:05:51;74509.66;;;-141.45;53.95
31403;BME280;18039;52.188;21.024;2023-03-14T09:08:18;74501.56;;;-141.45;53.96
31403;BME280;18039;52.188;21.024;2023-03-14T09:10:45;74505.63;;;-141.45;53.61
31403;BME280;18039;52.188;21.024;2023-03-14T09:13:13;74493.47;;;-141.45;53.86
31403;BME280;18039;52.188;21.024;2023-03-14T09:15:40;74489.41;;;-141.45;53.82
31403;BME280;18039;52.188;21.024;2023-03-14T09:18:09;74479.28;;;-141.45;53.91
31403;BME280;18039;52.188;21.024;2023-03-14T09:20:36;74454.97;;;-141.45;53.04
31403;BME280;18039;52.188;21.024;2023-03-14T09:23:03;74448.91;;;-141.45;53.17
31403;BME280;18039;52.188;21.024;2023-03-14T09:25:30;74428.63;;;-141.45;53.05
31403;BME280;18039;52.188;21.024;2023-03-14T09:27:57;74400.28;;;-141.45;52.27
31403;BME280;18039;52.188;21.024;2023-03-14T09:30:25;74375.97;;;-141.45;52.18
31403;BME280;18039;52.188;21.024;2023-03-14T09:32:52;74355.69;;;-141.45;52.42
31403;BME280;18039;52.188;21.024;2023-03-14T09:35:20;74325.31;;;-141.45;51.94
31403;BME280;18039;52.188;21.024;2023-03-14T09:37:47;74303.03;;;-141.45;50.85
31403;BME280;18039;52.188;21.024;2023-03-14T09:40:16;74303.03;;;-141.45;50.86
31403;BME280;18039;52.188;21.024;2023-03-14T09:42:44;74294.94;;;-141.45;51.05
31403;BME280;18039;52.188;21.024;2023-03-14T09:45:38;74272.66;;;-141.45;50.94
31403;BME280;18039;52.188;21.024;2023-03-14T09:48:16;74274.69;;;-141.45;50.96
31403;BME280;18039;52.188;21.024;2023-03-14T09:50:53;74262.53;;;-141.45;50.52
31403;BME280;18039;52.188;21.024;2023-03-14T09:53:26;74252.38;;;-141.45;50.35
31403;BME280;18039;52.188;21.024;2023-03-14T09:55:57;74242.25;;;-141.45;49.18
31403;BME280;18039;52.188;21.024;2023-03-14T09:58:25;74242.25;;;-141.45;49.44
31403;BME280;18039;52.188;21.024;2023-03-14T10:00:55;74226.06;;;-141.45;49.60
31403;BME280;18039;52.188;21.024;2023-03-14T10:03:32;74209.84;;;-141.45;49.16
31403;BME280;18039;52.188;21.024;2023-03-14T10:06:00;74193.66;;;-141.45;48.84
31403;BME280;18039;52.188;21.024;2023-03-14T10:08:28;74217.94;;;-141.45;48.22
31403;BME280;18039;52.188;21.024;2023-03-14T10:10:55;74244.28;;;-141.45;48.35
31403;BME280;18039;52.188;21.024;2023-03-14T10:13:25;74264.53;;;-141.45;48.70
31403;BME280;18039;52.188;21.024;2023-03-14T10:15:59;74270.63;;;-141.45;49.38
31403;BME280;18039;52.188;21.024;2023-03-14T10:18:31;74286.81;;;-141.45;50.13
31403;BME280;18039;52.188;21.024;2023-03-14T10:23:34;74305.06;;;-141.45;50.27
31403;BME280;18039;52.188;21.024;2023-03-14T10:26:13;74307.09;;;-141.45;50.49
31403;BME280;18039;52.188;21.024;2023-03-14T10:28:47;74303.03;;;-141.45;50.38
31403;BME280;18039;52.188;21.024;2023-03-14T10:31:15;74282.78;;;-141.45;50.29
31403;BME280;18039;52.188;21.024;2023-03-14T10:33:57;74282.78;;;-141.45;49.90
31403;BME280;18039;52.188;21.024;2023-03-14T10:36:28;74286.81;;;-141.45;49.99
31403;BME280;18039;52.188;21.024;2023-03-14T10:41:50;74254.41;;;-141.45;50.42
31403;BME280;18039;52.188;21.024;2023-03-14T10:44:24;74250.38;;;-141.45;49.19
31403;BME280;18039;52.188;21.024;2023-03-14T10:47:01;74242.25;;;-141.45;49.44
31403;BME280;18039;52.188;21.024;2023-03-14T10:49:32;74262.53;;;-141.45;50.13
31403;BME280;18039;52.188;21.024;2023-03-14T10:52:17;74252.38;;;-141.45;49.82
31403;BME280;18039;52.188;21.024;2023-03-14T10:54:47;74250.38;;;-141.45;50.73
31403;BME280;18039;52.188;21.024;2023-03-14T10:57:14;74252.38;;;-141.45;50.49
31403;BME280;18039;52.188;21.024;2023-03-14T10:59:42;74258.47;;;-141.45;50.42
31403;BME280;18039;52.188;21.024;2023-03-14T11:05:27;74278.72;;;-141.45;50.68
31403;BME280;18039;52.188;21.024;2023-03-14T11:08:01;74290.88;;;-141.45;50.82
31403;BME280;18039;52.188;21.024;2023-03-14T11:10:34;74288.84;;;-141.45;50.45
31403;BME280;18039;52.188;21.024;2023-03-14T11:16:14;74311.13;;;-141.45;50.39
31403;BME280;18039;52.188;21.024;2023-03-14T11:18:51;74327.34;;;-141.45;51.13
31403;BME280;18039;52.188;21.024;2023-03-14T11:22:00;74303.03;;;-141.45;50.25
31403;BME280;18039;52.188;21.024;2023-03-14T11:29:40;74343.56;;;-141.45;51.15
31403;BME280;18039;52.188;21.024;2023-03-14T11:35:30;74367.84;;;-141.45;51.68
31403;BME280;18039;52.188;21.024;2023-03-14T11:41:14;74382.03;;;-141.45;52.21
31403;BME280;18039;52.188;21.024;2023-03-14T11:43:54;74371.91;;;-141.45;52.92
31403;BME280;18039;52.188;21.024;2023-03-14T11:46:34;74351.66;;;-141.45;52.56
31403;BME280;18039;52.188;21.024;2023-03-14T11:49:21;74355.69;;;-141.45;52.74
31403;BME280;18039;52.188;21.024;2023-03-14T11:51:56;74367.84;;;-141.45;52.74
31403;BME280;18039;52.188;21.024;2023-03-14T11:54:43;74363.81;;;-141.45;53.15
31403;BME280;18039;52.188;21.024;2023-03-14T11:57:19;74367.84;;;-141.45;53.27
31403;BME280;18039;52.188;21.024;2023-03-14T11:59:55;74347.59;;;-141.45;53.08
31403;BME280;18039;52.188;21.024;2023-03-14T12:05:43;74319.25;;;-141.45;51.78
31403;BME280;18039;52.188;21.024;2023-03-14T12:08:22;74311.13;;;-141.45;52.38
31403;BME280;18039;52.188;21.024;2023-03-14T12:10:59;74282.78;;;-141.45;52.17
31403;BME280;18039;52.188;21.024;2023-03-14T12:13:31;74246.31;;;-141.45;50.99
31403;BME280;18039;52.188;21.024;2023-03-14T12:16:04;74242.25;;;-141.45;51.12
31403;BME280;18039;52.188;21.024;2023-03-14T12:18:35;74250.38;;;-141.45;51.07
31403;BME280;18039;52.188;21.024;2023-03-14T12:21:09;74242.25;;;-141.45;50.42
31403;BME280;18039;52.188;21.024;2023-03-14T12:23:48;74286.81;;;-141.45;51.94
31403;BME280;18039;52.188;21.024;2023-03-14T12:26:22;74309.13;;;-141.45;52.21
31403;BME280;18039;52.188;21.024;2023-03-14T12:37:10;74375.97;;;-141.45;53.55
31403;BME280;18039;52.188;21.024;2023-03-14T12:39:56;74404.31;;;-141.45;54.36
31403;BME280;18039;52.188;21.024;2023-03-14T12:45:31;74424.59;;;-141.45;55.27
31403;BME280;18039;52.188;21.024;2023-03-14T12:48:21;74448.91;;;-141.45;55.43
31403;BME280;18039;52.188;21.024;2023-03-14T12:51:03;74452.94;;;-141.45;55.26
31403;BME280;18039;52.188;21.024;2023-03-14T12:56:24;74485.34;;;-141.45;56.57
31403;BME280;18039;52.188;21.024;2023-03-14T13:01:33;74509.66;;;-141.45;57.09
31403;BME280;18039;52.188;21.024;2023-03-14T13:04:09;74533.97;;;-141.45;57.78
31403;BME280;18039;52.188;21.024;2023-03-14T13:12:01;74604.88;;;-141.45;64.28
31403;BME280;18039;52.188;21.024;2023-03-14T13:14:31;74629.19;;;-141.45;66.55
31403;BME280;18039;52.188;21.024;2023-03-14T13:17:02;74669.72;;;-141.45;66.18
31403;BME280;18039;52.188;21.024;2023-03-14T13:19:56;74687.94;;;-141.45;67.57
31403;BME280;18039;52.188;21.024;2023-03-14T13:22:27;74720.38;;;-141.45;69.94
31403;BME280;18039;52.188;21.024;2023-03-14T13:25:04;74744.69;;;-141.45;71.67
31403;BME280;18039;52.188;21.024;2023-03-14T13:27:34;74764.94;;;-141.45;71.99
31403;BME280;18039;52.188;21.024;2023-03-14T13:30:40;74762.91;;;-141.45;73.22
31403;BME280;18039;52.188;21.024;2023-03-14T13:33:03;74773.03;;;-141.45;73.66
31403;BME280;18039;52.188;21.024;2023-03-14T13:35:39;74777.09;;;-141.45;74.54
31403;BME280;18039;52.188;21.024;2023-03-14T13:38:15;74791.28;;;-141.45;72.69
31403;BME280;18039;52.188;21.024;2023-03-14T13:40:45;74791.28;;;-141.45;73.37
31403;BME280;18039;52.188;21.024;2023-03-14T13:43:16;74795.31;;;-141.45;73.80
31403;BME280;18039;52.188;21.024;2023-03-14T13:48:33;74817.63;;;-141.45;76.58
31403;BME280;18039;52.188;21.024;2023-03-14T13:51:05;74815.59;;;-141.45;77.40
31403;BME280;18039;52.188;21.024;2023-03-14T13:53:43;74829.78;;;-141.45;78.81
31403;BME280;18039;52.188;21.024;2023-03-14T13:56:11;74837.88;;;-141.45;79.15
31403;BME280;18039;52.188;21.024;2023-03-14T13:58:39;74848.00;;;-141.45;79.24